createdAt,value
2018-12-17T00:00:27.857Z,97.87
2018-12-17T00:01:27.842Z,97.68
2018-12-17T00:02:27.826Z,97.58
2018-12-17T00:03:27.809Z,97.2
2018-12-17T00:04:27.810Z,97.77
2018-12-17T00:05:27.776Z,97.68
2018-12-17T00:06:27.780Z,97.49
2018-12-17T00:07:27.746Z,97.68
2018-12-17T00:08:34.481Z,97.96
2018-12-17T00:09:27.711Z,98.06
2018-12-17T00:10:27.697Z,97.2
2018-12-17T00:11:27.683Z,97.16
2018-12-17T00:12:27.667Z,97.44
2018-12-17T00:13:27.652Z,97.73
2018-12-17T00:14:27.394Z,97.25
2018-12-17T00:15:27.618Z,97.16
2018-12-17T00:16:27.602Z,97.44
2018-12-17T00:17:27.588Z,97.35
2018-12-17T00:18:27.571Z,97.44
2018-12-17T00:19:27.559Z,97.35
2018-12-17T00:20:27.539Z,97.16
2018-12-17T00:21:27.284Z,97.54
2018-12-17T00:22:27.508Z,97.06
2018-12-17T00:23:27.492Z,97.44
2018-12-17T00:24:27.479Z,97.63
2018-12-17T00:25:27.460Z,96.97
2018-12-17T00:26:27.447Z,97.25
2018-12-17T00:27:27.428Z,97.06
2018-12-17T00:28:27.416Z,97.25
2018-12-17T00:29:27.414Z,96.97
2018-12-17T00:30:27.386Z,96.88
2018-12-17T00:31:27.367Z,96.78
2018-12-17T00:32:27.351Z,96.78
2018-12-17T00:33:27.334Z,96.97
2018-12-17T00:34:27.322Z,97.16
2018-12-17T00:35:27.303Z,97.44
2018-12-17T00:36:27.289Z,96.97
2018-12-17T00:37:27.271Z,96.78
2018-12-17T00:38:27.255Z,96.88
2018-12-17T00:39:27.540Z,96.88
2018-12-17T00:40:27.228Z,96.69
2018-12-17T00:41:27.212Z,96.78
2018-12-17T00:42:27.193Z,96.69
2018-12-17T00:43:27.179Z,97.44
2018-12-17T00:44:27.163Z,97.11
2018-12-17T00:45:27.146Z,97.06
2018-12-17T00:46:27.131Z,97.44
2018-12-17T00:47:27.116Z,97.54
2018-12-17T00:48:27.099Z,97.63
2018-12-17T00:49:27.084Z,97.16
2018-12-17T00:50:27.067Z,97.16
2018-12-17T00:51:27.051Z,97.25
2018-12-17T00:52:27.037Z,96.97
2018-12-17T00:53:27.025Z,97.16
2018-12-17T00:54:27.008Z,96.88
2018-12-17T00:55:26.988Z,97.06
2018-12-17T00:56:26.972Z,96.59
2018-12-17T00:57:26.954Z,97.16
2018-12-17T00:58:26.941Z,96.88
2018-12-17T00:59:26.923Z,96.97
2018-12-17T01:00:26.908Z,97.35
2018-12-17T01:01:26.895Z,97.16
2018-12-17T01:02:26.881Z,96.78
2018-12-17T01:03:26.863Z,96.97
2018-12-17T01:04:26.846Z,97.06
2018-12-17T01:05:26.832Z,96.88
2018-12-17T01:06:26.817Z,96.69
2018-12-17T01:07:26.801Z,96.69
2018-12-17T01:08:26.785Z,96.78
2018-12-17T01:09:26.774Z,97.06
2018-12-17T01:10:26.754Z,96.88
2018-12-17T01:11:26.738Z,96.97
2018-12-17T01:12:26.721Z,96.78
2018-12-17T01:13:26.715Z,97.44
2018-12-17T01:14:26.689Z,96.88
2018-12-17T01:15:26.679Z,96.69
2018-12-17T01:16:26.667Z,97.06
2018-12-17T01:17:26.641Z,96.69
2018-12-17T01:18:26.628Z,97.06
2018-12-17T01:19:26.611Z,96.88
2018-12-17T01:20:26.594Z,97.06
2018-12-17T01:21:26.578Z,96.59
2018-12-17T01:22:26.565Z,97.25
2018-12-17T01:23:26.547Z,96.78
2018-12-17T01:24:26.532Z,97.16
2018-12-17T01:25:26.518Z,96.97
2018-12-17T01:26:26.501Z,96.78
2018-12-17T01:27:26.485Z,96.88
2018-12-17T01:28:26.471Z,96.97
2018-12-17T01:29:26.453Z,97.25
2018-12-17T01:30:26.439Z,96.78
2018-12-17T01:31:26.422Z,96.88
2018-12-17T01:32:26.406Z,96.78
2018-12-17T01:33:26.389Z,96.88
2018-12-17T01:34:26.375Z,96.69
2018-12-17T01:35:26.369Z,96.88
2018-12-17T01:36:26.347Z,97.06
2018-12-17T01:37:26.329Z,96.78
2018-12-17T01:38:26.319Z,96.5
2018-12-17T01:39:26.058Z,96.59
2018-12-17T01:40:26.283Z,96.59
2018-12-17T01:41:26.276Z,96.4
2018-12-17T01:42:26.253Z,96.5
2018-12-17T01:43:26.236Z,96.5
2018-12-17T01:44:26.222Z,96.5
2018-12-17T01:45:26.209Z,96.4
2018-12-17T01:46:26.191Z,96.59
2018-12-17T01:47:26.176Z,95.74
2018-12-17T01:48:26.158Z,96.4
2018-12-17T01:49:26.142Z,95.93
2018-12-17T01:50:26.126Z,96.5
2018-12-17T01:51:26.111Z,96.02
2018-12-17T01:52:26.097Z,96.12
2018-12-17T01:53:26.079Z,96.02
2018-12-17T01:54:26.064Z,96.78
2018-12-17T01:55:26.047Z,96.4
2018-12-17T01:56:26.034Z,96.4
2018-12-17T01:57:26.017Z,96.88
2018-12-17T01:58:31.710Z,96.78
2018-12-17T01:59:25.988Z,96.78
2018-12-17T02:00:25.972Z,96.78
2018-12-17T02:01:25.956Z,96.69
2018-12-17T02:02:25.939Z,96.5
2018-12-17T02:03:25.926Z,96.4
2018-12-17T02:04:25.913Z,96.4
2018-12-17T02:05:25.894Z,96.59
2018-12-17T02:06:25.885Z,96.78
2018-12-17T02:07:25.862Z,96.59
2018-12-17T02:08:25.849Z,96.4
2018-12-17T02:09:25.829Z,96.31
2018-12-17T02:10:25.816Z,96.78
2018-12-17T02:11:25.802Z,96.4
2018-12-17T02:12:25.785Z,96.59
2018-12-17T02:13:25.767Z,96.78
2018-12-17T02:14:25.753Z,96.88
2018-12-17T02:15:25.736Z,96.88
2018-12-17T02:16:25.721Z,96.88
2018-12-17T02:17:25.705Z,96.59
2018-12-17T02:18:25.689Z,96.97
2018-12-17T02:19:25.671Z,96.69
2018-12-17T02:20:25.659Z,97.06
2018-12-17T02:21:25.717Z,97.06
2018-12-17T02:22:25.627Z,96.78
2018-12-17T02:23:25.369Z,97.11
2018-12-17T02:24:25.604Z,97.2
2018-12-17T02:25:25.576Z,96.92
2018-12-17T02:26:25.565Z,97.11
2018-12-17T02:27:25.633Z,97.3
2018-12-17T02:28:25.537Z,97.3
2018-12-17T02:29:25.520Z,97.11
2018-12-17T02:30:25.506Z,97.49
2018-12-17T02:31:25.494Z,97.77
2018-12-17T02:32:25.472Z,97.87
2018-12-17T02:33:25.454Z,98.72
2018-12-17T02:34:25.440Z,98.44
2018-12-17T02:35:27.575Z,98.82
2018-12-17T02:36:25.403Z,98.63
2018-12-17T02:37:25.390Z,99.38
2018-12-17T02:38:25.374Z,99.38
2018-12-17T02:39:25.355Z,99.1
2018-12-17T02:40:25.345Z,99.66
2018-12-17T02:41:25.328Z,99.38
2018-12-17T02:42:25.466Z,99.29
2018-12-17T02:43:25.290Z,99.38
2018-12-17T02:44:25.276Z,99.48
2018-12-17T02:45:25.255Z,99.38
2018-12-17T02:46:25.242Z,99.19
2018-12-17T02:47:25.226Z,99.48
2018-12-17T02:48:25.210Z,99.1
2018-12-17T02:49:25.232Z,99.01
2018-12-17T02:50:25.179Z,99.01
2018-12-17T02:51:25.172Z,98.91
2018-12-17T02:52:25.147Z,99.1
2018-12-17T02:53:25.131Z,98.72
2018-12-17T02:54:25.114Z,98.72
2018-12-17T02:55:25.096Z,98.82
2018-12-17T02:56:25.086Z,98.82
2018-12-17T02:57:25.066Z,98.91
2018-12-17T02:58:25.048Z,98.91
2018-12-17T02:59:25.033Z,98.91
2018-12-17T03:00:25.051Z,98.91
2018-12-17T03:01:25.039Z,98.82
2018-12-17T03:02:24.982Z,98.82
2018-12-17T03:03:24.967Z,99.01
2018-12-17T03:04:24.953Z,99.01
2018-12-17T03:05:24.934Z,98.82
2018-12-17T03:06:24.919Z,98.82
2018-12-17T03:07:24.902Z,98.82
2018-12-17T03:08:24.888Z,98.91
2018-12-17T03:09:24.879Z,99.01
2018-12-17T03:10:24.861Z,98.39
2018-12-17T03:11:24.838Z,98.39
2018-12-17T03:12:24.823Z,98.63
2018-12-17T03:13:24.804Z,98.77
2018-12-17T03:14:24.797Z,98.2
2018-12-17T03:15:24.778Z,98.01
2018-12-17T03:16:24.764Z,98.01
2018-12-17T03:17:24.747Z,97.73
2018-12-17T03:18:24.742Z,98.2
2018-12-17T03:19:24.710Z,97.92
2018-12-17T03:20:24.696Z,98.11
2018-12-17T03:21:24.679Z,97.73
2018-12-17T03:22:24.743Z,97.92
2018-12-17T03:23:24.648Z,97.82
2018-12-17T03:24:24.643Z,98.11
2018-12-17T03:25:24.625Z,97.73
2018-12-17T03:26:24.600Z,97.82
2018-12-17T03:27:24.586Z,97.92
2018-12-17T03:28:24.572Z,97.82
2018-12-17T03:29:24.554Z,97.73
2018-12-17T03:30:24.543Z,97.73
2018-12-17T03:31:24.525Z,97.73
2018-12-17T03:32:24.514Z,97.54
2018-12-17T03:33:24.491Z,97.16
2018-12-17T03:34:24.475Z,97.54
2018-12-17T03:35:24.458Z,97.92
2018-12-17T03:36:24.443Z,97.25
2018-12-17T03:37:24.425Z,97.92
2018-12-17T03:38:24.411Z,97.35
2018-12-17T03:39:24.395Z,97.25
2018-12-17T03:40:24.385Z,97.82
2018-12-17T03:41:24.362Z,97.06
2018-12-17T03:42:24.350Z,97.44
2018-12-17T03:43:24.334Z,97.44
2018-12-17T03:44:24.318Z,97.25
2018-12-17T03:45:24.303Z,97.35
2018-12-17T03:46:24.286Z,97.92
2018-12-17T03:47:24.273Z,97.35
2018-12-17T03:48:24.253Z,97.16
2018-12-17T03:49:24.243Z,97.16
2018-12-17T03:50:24.221Z,97.44
2018-12-17T03:51:24.210Z,97.63
2018-12-17T03:52:24.193Z,97.73
2018-12-17T03:53:24.177Z,97.35
2018-12-17T03:54:24.161Z,97.63
2018-12-17T03:55:24.162Z,97.35
2018-12-17T03:56:24.130Z,97.25
2018-12-17T03:57:24.110Z,97.25
2018-12-17T03:58:24.096Z,97.25
2018-12-17T03:59:24.082Z,97.16
2018-12-17T04:00:24.067Z,96.97
2018-12-17T04:01:24.048Z,96.97
2018-12-17T04:02:24.035Z,96.78
2018-12-17T04:03:24.649Z,96.59
2018-12-17T04:04:24.019Z,96.88
2018-12-17T04:05:23.990Z,96.88
2018-12-17T04:06:23.972Z,96.97
2018-12-17T04:07:23.969Z,97.16
2018-12-17T04:08:23.939Z,97.35
2018-12-17T04:09:23.924Z,97.16
2018-12-17T04:10:23.912Z,97.16
2018-12-17T04:11:23.894Z,97.35
2018-12-17T04:12:23.879Z,97.73
2018-12-17T04:13:23.862Z,97.63
2018-12-17T04:14:23.857Z,97.35
2018-12-17T04:15:23.835Z,97.44
2018-12-17T04:16:23.813Z,97.44
2018-12-17T04:17:23.805Z,97.25
2018-12-17T04:18:23.782Z,97.35
2018-12-17T04:19:23.779Z,97.73
2018-12-17T04:20:23.756Z,97.35
2018-12-17T04:21:23.758Z,97.54
2018-12-17T04:22:23.724Z,97.73
2018-12-17T04:23:23.707Z,97.35
2018-12-17T04:24:23.690Z,97.35
2018-12-17T04:25:23.675Z,97.16
2018-12-17T04:26:23.658Z,96.97
2018-12-17T04:27:23.657Z,96.97
2018-12-17T04:28:23.640Z,97.06
2018-12-17T04:29:23.612Z,97.16
2018-12-17T04:30:23.598Z,96.88
2018-12-17T04:31:23.581Z,96.88
2018-12-17T04:32:23.577Z,96.59
2018-12-17T04:33:23.344Z,96.59
2018-12-17T04:34:23.537Z,96.78
2018-12-17T04:35:23.524Z,96.97
2018-12-17T04:36:23.504Z,96.88
2018-12-17T04:37:23.493Z,96.97
2018-12-17T04:38:23.474Z,96.5
2018-12-17T04:39:23.510Z,96.5
2018-12-17T04:40:23.452Z,96.88
2018-12-17T04:41:23.427Z,96.78
2018-12-17T04:42:23.410Z,96.5
2018-12-17T04:43:23.445Z,97.11
2018-12-17T04:44:23.137Z,96.45
2018-12-17T04:45:23.365Z,96.4
2018-12-17T04:46:23.351Z,96.64
2018-12-17T04:47:23.331Z,96.5
2018-12-17T04:48:23.316Z,96.69
2018-12-17T04:49:23.308Z,96.12
2018-12-17T04:50:23.291Z,96.31
2018-12-17T04:51:23.279Z,96.02
2018-12-17T04:52:23.265Z,96.59
2018-12-17T04:53:23.247Z,96.64
2018-12-17T04:54:23.252Z,96.69
2018-12-17T04:55:23.219Z,96.31
2018-12-17T04:56:23.196Z,96.78
2018-12-17T04:57:23.189Z,96.31
2018-12-17T04:58:23.165Z,96.64
2018-12-17T04:59:23.155Z,96.4
2018-12-17T05:00:22.894Z,96.64
2018-12-17T05:01:23.120Z,96.59
2018-12-17T05:02:23.103Z,96.59
2018-12-17T05:03:23.088Z,96.59
2018-12-17T05:04:23.076Z,96.59
2018-12-17T05:05:23.059Z,96.59
2018-12-17T05:06:23.042Z,96.59
2018-12-17T05:07:23.026Z,96.4
2018-12-17T05:08:23.010Z,96.45
2018-12-17T05:09:22.995Z,96.45
2018-12-17T05:10:22.979Z,96.45
2018-12-17T05:11:22.965Z,95.98
2018-12-17T05:12:22.950Z,96.17
2018-12-17T05:13:22.937Z,96.26
2018-12-17T05:14:22.917Z,96.45
2018-12-17T05:15:22.905Z,95.69
2018-12-17T05:16:22.893Z,95.88
2018-12-17T05:17:22.878Z,96.07
2018-12-17T05:18:22.856Z,95.79
2018-12-17T05:19:22.842Z,96.55
2018-12-17T05:20:22.825Z,96.64
2018-12-17T05:21:22.811Z,96.73
2018-12-17T05:22:22.795Z,96.64
2018-12-17T05:23:22.782Z,96.64
2018-12-17T05:24:22.764Z,96.64
2018-12-17T05:25:22.748Z,95.88
2018-12-17T05:26:22.736Z,96.83
2018-12-17T05:27:22.720Z,96.17
2018-12-17T05:28:22.709Z,96.17
2018-12-17T05:29:24.108Z,96.17
2018-12-17T05:30:22.673Z,95.98
2018-12-17T05:31:22.665Z,96.55
2018-12-17T05:32:22.643Z,96.26
2018-12-17T05:33:22.628Z,96.26
2018-12-17T05:34:22.615Z,95.98
2018-12-17T05:35:22.595Z,96.17
2018-12-17T05:36:22.583Z,95.79
2018-12-17T05:37:22.569Z,96.17
2018-12-17T05:38:22.553Z,96.36
2018-12-17T05:39:22.538Z,95.6
2018-12-17T05:40:22.523Z,95.79
2018-12-17T05:41:22.506Z,95.79
2018-12-17T05:42:22.489Z,95.79
2018-12-17T05:43:22.473Z,95.79
2018-12-17T05:44:22.463Z,95.5
2018-12-17T05:45:22.452Z,95.5
2018-12-17T05:46:22.431Z,95.41
2018-12-17T05:47:22.413Z,95.69
2018-12-17T05:48:22.399Z,95.79
2018-12-17T05:49:22.382Z,95.69
2018-12-17T05:50:22.377Z,95.41
2018-12-17T05:51:22.355Z,95.79
2018-12-17T05:52:22.339Z,95.6
2018-12-17T05:53:22.322Z,95.5
2018-12-17T05:54:22.307Z,95.41
2018-12-17T05:55:22.290Z,95.79
2018-12-17T05:56:22.282Z,95.5
2018-12-17T05:57:22.258Z,95.5
2018-12-17T05:58:22.329Z,95.41
2018-12-17T05:59:28.287Z,95.5
2018-12-17T06:00:22.212Z,95.6
2018-12-17T06:01:22.197Z,96.02
2018-12-17T06:02:22.185Z,95.93
2018-12-17T06:03:22.167Z,96.4
2018-12-17T06:04:22.157Z,96.07
2018-12-17T06:05:22.139Z,96.26
2018-12-17T06:06:22.122Z,96.59
2018-12-17T06:07:22.106Z,96.21
2018-12-17T06:08:22.093Z,96.64
2018-12-17T06:09:22.078Z,96.69
2018-12-17T06:10:22.059Z,96.45
2018-12-17T06:11:22.045Z,96.45
2018-12-17T06:12:22.030Z,96.64
2018-12-17T06:13:22.017Z,96.64
2018-12-17T06:14:21.998Z,96.64
2018-12-17T06:15:21.985Z,96.64
2018-12-17T06:16:21.980Z,96.64
2018-12-17T06:17:21.954Z,96.17
2018-12-17T06:18:21.937Z,95.88
2018-12-17T06:19:21.925Z,96.07
2018-12-17T06:20:21.911Z,96.45
2018-12-17T06:21:21.893Z,96.64
2018-12-17T06:22:21.877Z,95.98
2018-12-17T06:23:21.897Z,95.88
2018-12-17T06:24:21.845Z,95.88
2018-12-17T06:25:21.834Z,96.45
2018-12-17T06:26:21.815Z,96.55
2018-12-17T06:27:21.800Z,95.88
2018-12-17T06:28:21.859Z,95.79
2018-12-17T06:29:21.771Z,95.88
2018-12-17T06:30:21.756Z,95.88
2018-12-17T06:31:21.740Z,95.98
2018-12-17T06:32:21.792Z,96.45
2018-12-17T06:33:21.721Z,96.26
2018-12-17T06:34:21.702Z,95.88
2018-12-17T06:35:21.680Z,95.88
2018-12-17T06:36:21.663Z,95.88
2018-12-17T06:37:21.647Z,96.83
2018-12-17T06:38:21.633Z,96.83
2018-12-17T06:39:21.619Z,96.83
2018-12-17T06:40:21.609Z,96.45
2018-12-17T06:41:21.590Z,96.64
2018-12-17T06:42:21.578Z,95.88
2018-12-17T06:43:21.566Z,96.17
2018-12-17T06:44:21.540Z,96.26
2018-12-17T06:45:21.536Z,96.07
2018-12-17T06:46:21.512Z,96.07
2018-12-17T06:47:21.499Z,95.79
2018-12-17T06:48:21.483Z,95.98
2018-12-17T06:49:21.466Z,95.79
2018-12-17T06:50:21.453Z,96.17
2018-12-17T06:51:21.435Z,96.26
2018-12-17T06:52:21.421Z,95.98
2018-12-17T06:53:21.407Z,96.26
2018-12-17T06:54:21.394Z,96.17
2018-12-17T06:55:21.400Z,96.17
2018-12-17T06:56:21.361Z,95.5
2018-12-17T06:57:21.348Z,95.5
2018-12-17T06:58:21.331Z,95.6
2018-12-17T06:59:21.316Z,95.69
2018-12-17T07:00:21.304Z,95.79
2018-12-17T07:01:21.293Z,95.6
2018-12-17T07:02:21.272Z,95.6
2018-12-17T07:03:21.255Z,95.69
2018-12-17T07:04:21.246Z,95.55
2018-12-17T07:05:21.229Z,95.12
2018-12-17T07:06:21.210Z,95.41
2018-12-17T07:07:21.199Z,95.6
2018-12-17T07:08:21.181Z,95.74
2018-12-17T07:09:21.165Z,95.74
2018-12-17T07:10:21.161Z,95.31
2018-12-17T07:11:21.135Z,95.5
2018-12-17T07:12:21.122Z,95.41
2018-12-17T07:13:21.106Z,95.55
2018-12-17T07:14:21.094Z,95.5
2018-12-17T07:15:21.077Z,95.5
2018-12-17T07:16:21.069Z,95.5
2018-12-17T07:17:21.045Z,95.41
2018-12-17T07:18:21.034Z,95.5
2018-12-17T07:19:21.018Z,95.5
2018-12-17T07:20:21.002Z,95.41
2018-12-17T07:21:21.019Z,95.26
2018-12-17T07:22:20.973Z,95.6
2018-12-17T07:23:20.959Z,95.74
2018-12-17T07:24:20.943Z,95.26
2018-12-17T07:25:20.927Z,95.45
2018-12-17T07:26:20.920Z,95.55
2018-12-17T07:27:20.915Z,94.98
2018-12-17T07:28:20.893Z,94.98
2018-12-17T07:29:20.869Z,94.79
2018-12-17T07:30:20.855Z,94.98
2018-12-17T07:31:20.838Z,95.07
2018-12-17T07:32:21.146Z,94.7
2018-12-17T07:33:20.810Z,94.7
2018-12-17T07:34:20.796Z,94.7
2018-12-17T07:35:20.778Z,94.79
2018-12-17T07:36:20.773Z,94.6
2018-12-17T07:37:20.751Z,94.79
2018-12-17T07:38:20.736Z,94.79
2018-12-17T07:39:20.717Z,94.32
2018-12-17T07:40:20.706Z,94.32
2018-12-17T07:41:20.689Z,94.13
2018-12-17T07:42:20.679Z,94.32
2018-12-17T07:43:20.662Z,94.32
2018-12-17T07:44:20.648Z,94.23
2018-12-17T07:45:20.630Z,94.23
2018-12-17T07:46:20.616Z,94.32
2018-12-17T07:47:20.602Z,94.32
2018-12-17T07:48:20.587Z,94.04
2018-12-17T07:49:20.571Z,94.32
2018-12-17T07:50:20.558Z,94.23
2018-12-17T07:51:20.544Z,94.32
2018-12-17T07:52:20.528Z,94.42
2018-12-17T07:53:20.514Z,93.65
2018-12-17T07:54:20.499Z,93.65
2018-12-17T07:55:20.484Z,93.84
2018-12-17T07:56:20.475Z,93.84
2018-12-17T07:57:20.459Z,93.46
2018-12-17T07:58:20.442Z,93.27
2018-12-17T07:59:20.429Z,93.41
2018-12-17T08:00:20.414Z,93.37
2018-12-17T08:01:20.403Z,93.32
2018-12-17T08:02:20.386Z,93.61
2018-12-17T08:03:20.368Z,93.41
2018-12-17T08:04:20.373Z,93.51
2018-12-17T08:05:20.340Z,93.61
2018-12-17T08:06:20.330Z,92.94
2018-12-17T08:07:20.313Z,93.04
2018-12-17T08:08:20.303Z,92.94
2018-12-17T08:09:20.283Z,92.94
2018-12-17T08:10:20.271Z,92.85
2018-12-17T08:11:20.257Z,92.66
2018-12-17T08:12:20.243Z,92.76
2018-12-17T08:13:20.273Z,92.85
2018-12-17T08:14:20.214Z,93.13
2018-12-17T08:15:20.201Z,92.47
2018-12-17T08:16:20.191Z,92.57
2018-12-17T08:17:20.173Z,92.76
2018-12-17T08:18:20.158Z,92.57
2018-12-17T08:19:20.142Z,92.57
2018-12-17T08:20:20.129Z,92.57
2018-12-17T08:21:20.118Z,92.57
2018-12-17T08:22:20.101Z,92.76
2018-12-17T08:23:20.087Z,92.47
2018-12-17T08:24:20.074Z,92.18
2018-12-17T08:25:19.819Z,92.18
2018-12-17T08:26:20.048Z,92.18
2018-12-17T08:27:20.033Z,92.28
2018-12-17T08:28:20.023Z,92.09
2018-12-17T08:29:20.004Z,92.38
2018-12-17T08:30:19.988Z,92.38
2018-12-17T08:31:19.976Z,92.28
2018-12-17T08:32:19.960Z,92.18
2018-12-17T08:33:19.954Z,92.28
2018-12-17T08:34:19.931Z,92.18
2018-12-17T08:35:19.919Z,92.38
2018-12-17T08:36:19.905Z,91.99
2018-12-17T08:37:19.893Z,91.9
2018-12-17T08:38:19.876Z,92.57
2018-12-17T08:39:19.863Z,92.47
2018-12-17T08:40:19.850Z,92.38
2018-12-17T08:41:19.838Z,92.28
2018-12-17T08:42:19.823Z,91.9
2018-12-17T08:43:19.811Z,92.18
2018-12-17T08:44:19.794Z,92.38
2018-12-17T08:45:19.781Z,91.99
2018-12-17T08:46:19.767Z,91.99
2018-12-17T08:47:19.752Z,92.18
2018-12-17T08:48:19.738Z,92.47
2018-12-17T08:49:19.725Z,92.28
2018-12-17T08:50:19.710Z,92.47
2018-12-17T08:51:19.696Z,92.09
2018-12-17T08:52:19.682Z,92.23
2018-12-17T08:53:19.674Z,92.18
2018-12-17T08:54:19.658Z,92.28
2018-12-17T08:55:19.646Z,92.52
2018-12-17T08:56:19.628Z,92.23
2018-12-17T08:57:19.620Z,91.94
2018-12-17T08:58:19.603Z,92.04
2018-12-17T08:59:19.588Z,91.47
2018-12-17T09:00:19.578Z,91.47
2018-12-17T09:01:19.561Z,91.47
2018-12-17T09:02:19.550Z,91.66
2018-12-17T09:03:19.535Z,91.66
2018-12-17T09:04:19.525Z,91.56
2018-12-17T09:05:19.508Z,92.14
2018-12-17T09:06:19.497Z,91.75
2018-12-17T09:07:19.481Z,91.75
2018-12-17T09:08:19.467Z,92.14
2018-12-17T09:09:19.465Z,91.75
2018-12-17T09:10:19.439Z,91.94
2018-12-17T09:11:19.427Z,91.56
2018-12-17T09:12:19.412Z,91.56
2018-12-17T09:13:19.403Z,91.56
2018-12-17T09:14:19.386Z,91.75
2018-12-17T09:15:19.375Z,91.47
2018-12-17T09:16:19.360Z,91.38
2018-12-17T09:17:19.350Z,91.75
2018-12-17T09:18:19.332Z,91.38
2018-12-17T09:19:19.323Z,91.38
2018-12-17T09:20:19.317Z,91.47
2018-12-17T09:21:19.314Z,91.09
2018-12-17T09:22:19.278Z,91
2018-12-17T09:23:19.267Z,91.42
2018-12-17T09:24:19.252Z,90.66
2018-12-17T09:25:19.241Z,91.14
2018-12-17T09:26:19.225Z,90.57
2018-12-17T09:27:19.213Z,90.76
2018-12-17T09:28:19.200Z,90.95
2018-12-17T09:29:19.189Z,90.85
2018-12-17T09:30:21.047Z,90.38
2018-12-17T09:31:19.161Z,90.76
2018-12-17T09:32:19.154Z,90.66
2018-12-17T09:33:19.133Z,90.76
2018-12-17T09:34:19.123Z,90.57
2018-12-17T09:35:19.111Z,90.47
2018-12-17T09:36:19.101Z,90.57
2018-12-17T09:37:19.087Z,90.09
2018-12-17T09:38:19.072Z,90.28
2018-12-17T09:39:19.061Z,89.9
2018-12-17T09:40:19.045Z,90.47
2018-12-17T09:41:19.034Z,90
2018-12-17T09:42:19.021Z,90.66
2018-12-17T09:43:19.007Z,90.66
2018-12-17T09:44:18.998Z,90.09
2018-12-17T09:45:18.990Z,90
2018-12-17T09:46:18.968Z,90.09
2018-12-17T09:47:18.956Z,90.09
2018-12-17T09:48:18.948Z,90
2018-12-17T09:49:18.931Z,90.66
2018-12-17T09:50:19.203Z,90.66
2018-12-17T09:51:22.118Z,90.85
2018-12-17T09:52:18.902Z,89.81
2018-12-17T09:53:18.883Z,90.42
2018-12-17T09:54:18.870Z,89.67
2018-12-17T09:55:18.855Z,89.76
2018-12-17T09:56:18.846Z,89.67
2018-12-17T09:57:18.831Z,90.38
2018-12-17T09:58:18.822Z,90.23
2018-12-17T09:59:18.807Z,89.57
2018-12-17T10:00:25.141Z,90.23
2018-12-17T10:01:18.780Z,89.76
2018-12-17T10:02:18.769Z,89.86
2018-12-17T10:03:18.757Z,89.95
2018-12-17T10:04:18.755Z,89.57
2018-12-17T10:05:18.729Z,89.47
2018-12-17T10:06:18.719Z,89.47
2018-12-17T10:07:18.708Z,89.76
2018-12-17T10:08:18.695Z,89.67
2018-12-17T10:09:18.683Z,89.47
2018-12-17T10:10:18.669Z,89.86
2018-12-17T10:11:18.662Z,89.76
2018-12-17T10:12:18.645Z,89.67
2018-12-17T10:13:18.634Z,89.86
2018-12-17T10:14:18.620Z,90.23
2018-12-17T10:15:18.615Z,89.95
2018-12-17T10:16:18.596Z,90.14
2018-12-17T10:17:18.585Z,89.47
2018-12-17T10:18:18.572Z,89.67
2018-12-17T10:19:18.558Z,89.47
2018-12-17T10:20:18.549Z,89.76
2018-12-17T10:21:18.535Z,89.67
2018-12-17T10:22:18.525Z,89.86
2018-12-17T10:23:18.271Z,89.67
2018-12-17T10:24:18.500Z,89.57
2018-12-17T10:25:18.488Z,89.67
2018-12-17T10:26:18.476Z,89.09
2018-12-17T10:27:18.871Z,89.09
2018-12-17T10:28:18.453Z,89.19
2018-12-17T10:29:18.439Z,89.19
2018-12-17T10:30:18.432Z,89.09
2018-12-17T10:31:18.418Z,88.9
2018-12-17T10:32:18.404Z,89
2018-12-17T10:33:18.398Z,88.53
2018-12-17T10:34:18.380Z,89
2018-12-17T10:35:18.368Z,88.81
2018-12-17T10:36:18.358Z,88.24
2018-12-17T10:37:18.346Z,89.19
2018-12-17T10:38:18.337Z,89.28
2018-12-17T10:39:18.323Z,88.9
2018-12-17T10:40:18.322Z,89.09
2018-12-17T10:41:18.296Z,89.19
2018-12-17T10:42:18.286Z,88.62
2018-12-17T10:43:18.275Z,88.71
2018-12-17T10:44:18.264Z,88.9
2018-12-17T10:45:18.249Z,89
2018-12-17T10:46:18.242Z,88.71
2018-12-17T10:47:18.231Z,88.47
2018-12-17T10:48:18.214Z,88.57
2018-12-17T10:49:18.203Z,88.76
2018-12-17T10:50:18.194Z,88.81
2018-12-17T10:51:18.179Z,88.43
2018-12-17T10:52:18.166Z,89.23
2018-12-17T10:53:18.154Z,89.23
2018-12-17T10:54:18.144Z,89.04
2018-12-17T10:55:18.135Z,88.85
2018-12-17T10:56:18.121Z,89.23
2018-12-17T10:57:18.107Z,89.23
2018-12-17T10:58:18.098Z,88.47
2018-12-17T10:59:18.086Z,88.67
2018-12-17T11:00:18.073Z,88.67
2018-12-17T11:01:18.062Z,88.67
2018-12-17T11:02:18.054Z,88.38
2018-12-17T11:03:18.039Z,88.38
2018-12-17T11:04:18.027Z,88.76
2018-12-17T11:05:18.023Z,88.67
2018-12-17T11:06:18.005Z,88.38
2018-12-17T11:07:17.993Z,88.67
2018-12-17T11:08:17.979Z,88.38
2018-12-17T11:09:17.968Z,88.57
2018-12-17T11:10:17.958Z,88.47
2018-12-17T11:11:17.946Z,88.47
2018-12-17T11:12:17.936Z,88.47
2018-12-17T11:13:17.923Z,88.85
2018-12-17T11:14:17.910Z,88.95
2018-12-17T11:15:17.907Z,89.14
2018-12-17T11:16:17.888Z,89.04
2018-12-17T11:17:17.894Z,88.67
2018-12-17T11:18:17.864Z,88.47
2018-12-17T11:19:17.853Z,88.38
2018-12-17T11:20:17.841Z,88.38
2018-12-17T11:21:17.900Z,88.85
2018-12-17T11:22:17.821Z,88.76
2018-12-17T11:23:18.191Z,88.95
2018-12-17T11:24:17.880Z,88.95
2018-12-17T11:25:17.786Z,88.85
2018-12-17T11:26:17.774Z,88.85
2018-12-17T11:27:17.768Z,89.14
2018-12-17T11:28:17.752Z,89.33
2018-12-17T11:29:17.740Z,89.04
2018-12-17T11:30:17.729Z,88.95
2018-12-17T11:31:17.714Z,89.14
2018-12-17T11:32:17.704Z,89.52
2018-12-17T11:33:17.691Z,90.75
2018-12-17T11:34:17.930Z,91.89
2018-12-17T11:35:17.668Z,92.66
2018-12-17T11:36:17.655Z,93.32
2018-12-17T11:37:17.642Z,93.7
2018-12-17T11:38:17.632Z,94.27
2018-12-17T11:39:17.618Z,94.08
2018-12-17T11:40:17.608Z,94.46
2018-12-17T11:41:17.596Z,94.84
2018-12-17T11:42:17.587Z,95.7
2018-12-17T11:43:17.572Z,95.51
2018-12-17T11:44:17.562Z,95.79
2018-12-17T11:45:17.551Z,96.26
2018-12-17T11:46:17.539Z,97.17
2018-12-17T11:47:17.527Z,97.64
2018-12-17T11:48:17.515Z,97.36
2018-12-17T11:49:17.504Z,97.6
2018-12-17T11:50:17.497Z,97.74
2018-12-17T11:51:17.480Z,97.88
2018-12-17T11:52:17.467Z,97.45
2018-12-17T11:53:17.456Z,97.64
2018-12-17T11:54:17.448Z,98.21
2018-12-17T11:55:17.432Z,97.83
2018-12-17T11:56:17.422Z,98.31
2018-12-17T11:57:17.453Z,97.5
2018-12-17T11:58:17.401Z,97.6
2018-12-17T11:59:17.387Z,97.12
2018-12-17T12:00:17.373Z,97.22
2018-12-17T12:01:17.364Z,96.84
2018-12-17T12:02:17.350Z,97.22
2018-12-17T12:03:17.336Z,97.41
2018-12-17T12:04:17.326Z,96.84
2018-12-17T12:05:17.317Z,96.26
2018-12-17T12:06:17.306Z,96.26
2018-12-17T12:07:17.294Z,96.41
2018-12-17T12:08:17.280Z,96.31
2018-12-17T12:09:18.515Z,96.03
2018-12-17T12:10:17.336Z,96.12
2018-12-17T12:11:17.243Z,95.84
2018-12-17T12:12:17.230Z,95.55
2018-12-17T12:13:17.226Z,95.75
2018-12-17T12:14:17.206Z,95.84
2018-12-17T12:15:17.199Z,95.84
2018-12-17T12:16:17.201Z,95.94
2018-12-17T12:17:17.186Z,95.36
2018-12-17T12:18:17.161Z,95.75
2018-12-17T12:19:17.149Z,96.17
2018-12-17T12:20:17.136Z,96.5
2018-12-17T12:21:17.126Z,96.41
2018-12-17T12:22:17.110Z,96.03
2018-12-17T12:23:17.101Z,96.31
2018-12-17T12:24:17.098Z,95.46
2018-12-17T12:25:17.146Z,95.08
2018-12-17T12:26:17.064Z,94.79
2018-12-17T12:27:17.055Z,94.89
2018-12-17T12:28:17.043Z,94.89
2018-12-17T12:29:17.028Z,94.89
2018-12-17T12:30:17.017Z,94.6
2018-12-17T12:31:17.004Z,94.84
2018-12-17T12:32:16.994Z,94.23
2018-12-17T12:33:16.985Z,94.42
2018-12-17T12:34:16.973Z,94.56
2018-12-17T12:35:16.958Z,94.13
2018-12-17T12:36:16.947Z,94.42
2018-12-17T12:37:16.941Z,94.51
2018-12-17T12:38:16.921Z,94.23
2018-12-17T12:39:16.910Z,94.42
2018-12-17T12:40:16.901Z,94.46
2018-12-17T12:41:16.886Z,94.42
2018-12-17T12:42:16.874Z,94.32
2018-12-17T12:43:16.865Z,93.75
2018-12-17T12:44:16.855Z,93.84
2018-12-17T12:45:16.839Z,93.94
2018-12-17T12:46:16.846Z,93.75
2018-12-17T12:47:16.818Z,93.65
2018-12-17T12:48:16.808Z,93.75
2018-12-17T12:49:16.791Z,93.84
2018-12-17T12:50:16.780Z,94.03
2018-12-17T12:51:16.768Z,94.42
2018-12-17T12:52:16.757Z,94.51
2018-12-17T12:53:16.745Z,94.42
2018-12-17T12:54:16.733Z,94.23
2018-12-17T12:55:16.721Z,94.51